sensor_id;sensor_type;location;lat;lon;timestamp;pressure;altitude;pressure_sealevel;temperature;humidity
30873;BME280;17579;42.690;2.586;2023-03-12T00:02:16;97023.19;;;17.96;50.13
30873;BME280;17579;42.690;2.586;2023-03-12T00:04:42;97034.69;;;17.97;49.78
30873;BME280;17579;42.690;2.586;2023-03-12T00:07:07;97039.03;;;17.98;50.34
30873;BME280;17579;42.690;2.586;2023-03-12T00:09:34;97045.00;;;18.00;49.95
30873;BME280;17579;42.690;2.586;2023-03-12T00:12:01;97040.50;;;18.00;50.36
30873;BME280;17579;42.690;2.586;2023-03-12T00:14:26;97044.38;;;17.98;50.85
30873;BME280;17579;42.690;2.586;2023-03-12T00:16:52;97047.25;;;17.96;50.76
30873;BME280;17579;42.690;2.586;2023-03-12T00:19:17;97040.03;;;17.97;50.65
30873;BME280;17579;42.690;2.586;2023-03-12T00:21:43;97037.56;;;17.95;50.89
30873;BME280;17579;42.690;2.586;2023-03-12T00:24:08;97040.03;;;17.97;50.90
30873;BME280;17579;42.690;2.586;2023-03-12T00:26:34;97048.66;;;17.92;50.99
30873;BME280;17579;42.690;2.586;2023-03-12T00:28:59;97054.38;;;17.89;51.57
30873;BME280;17579;42.690;2.586;2023-03-12T00:31:27;97056.09;;;17.90;51.22
30873;BME280;17579;42.690;2.586;2023-03-12T00:33:54;97054.03;;;17.92;51.56
30873;BME280;17579;42.690;2.586;2023-03-12T00:36:22;97067.41;;;17.92;51.04
30873;BME280;17579;42.690;2.586;2023-03-12T00:38:49;97072.34;;;17.95;51.36
30873;BME280;17579;42.690;2.586;2023-03-12T00:41:16;97077.75;;;18.02;51.32
30873;BME280;17579;42.690;2.586;2023-03-12T00:43:41;97078.56;;;18.03;51.42
30873;BME280;17579;42.690;2.586;2023-03-12T00:46:07;97073.88;;;18.05;51.39
30873;BME280;17579;42.690;2.586;2023-03-12T00:48:33;97072.63;;;18.07;51.34
30873;BME280;17579;42.690;2.586;2023-03-12T00:50:58;97076.34;;;18.06;51.65
30873;BME280;17579;42.690;2.586;2023-03-12T00:53:24;97078.81;;;18.08;51.53
30873;BME280;17579;42.690;2.586;2023-03-12T00:55:49;97075.13;;;18.09;51.59
30873;BME280;17579;42.690;2.586;2023-03-12T00:58:15;97081.69;;;18.06;51.35
30873;BME280;17579;42.690;2.586;2023-03-12T01:00:41;97082.50;;;18.07;51.52
30873;BME280;17579;42.690;2.586;2023-03-12T01:03:06;97069.13;;;18.07;51.28
30873;BME280;17579;42.690;2.586;2023-03-12T01:05:32;97077.97;;;18.07;51.48
30873;BME280;17579;42.690;2.586;2023-03-12T01:08:03;97076.34;;;18.06;51.60
30873;BME280;17579;42.690;2.586;2023-03-12T01:10:29;97076.16;;;18.08;51.65
30873;BME280;17579;42.690;2.586;2023-03-12T01:12:54;97078.81;;;18.08;52.03
30873;BME280;17579;42.690;2.586;2023-03-12T01:15:20;97075.13;;;18.09;51.48
30873;BME280;17579;42.690;2.586;2023-03-12T01:17:46;97071.13;;;17.98;51.79
30873;BME280;17579;42.690;2.586;2023-03-12T01:20:12;97073.81;;;17.98;51.93
30873;BME280;17579;42.690;2.586;2023-03-12T01:22:38;97074.84;;;17.97;52.08
30873;BME280;17579;42.690;2.586;2023-03-12T01:25:04;97076.69;;;17.96;52.36
30873;BME280;17579;42.690;2.586;2023-03-12T01:27:30;97080.38;;;17.95;52.23
30873;BME280;17579;42.690;2.586;2023-03-12T01:29:56;97073.19;;;17.96;52.00
30873;BME280;17579;42.690;2.586;2023-03-12T01:32:21;97080.38;;;17.95;52.43
30873;BME280;17579;42.690;2.586;2023-03-12T01:34:47;97081.03;;;17.97;52.11
30873;BME280;17579;42.690;2.586;2023-03-12T01:37:13;97087.81;;;18.00;52.07
30873;BME280;17579;42.690;2.586;2023-03-12T01:39:38;97086.59;;;18.03;51.99
30873;BME280;17579;42.690;2.586;2023-03-12T01:42:04;97080.63;;;18.00;51.64
30873;BME280;17579;42.690;2.586;2023-03-12T01:44:29;97094.22;;;17.99;52.01
30873;BME280;17579;42.690;2.586;2023-03-12T01:46:55;97075.88;;;17.96;52.15
30873;BME280;17579;42.690;2.586;2023-03-12T01:52:06;97079.63;;;17.80;52.72
30873;BME280;17579;42.690;2.586;2023-03-12T01:54:38;97085.81;;;17.80;52.40
30873;BME280;17579;42.690;2.586;2023-03-12T01:57:11;97088.09;;;17.83;52.74
30873;BME280;17579;42.690;2.586;2023-03-12T01:59:42;97082.75;;;17.83;52.93
30873;BME280;17579;42.690;2.586;2023-03-12T02:02:09;97089.38;;;17.88;52.63
30873;BME280;17579;42.690;2.586;2023-03-12T02:04:35;97082.16;;;17.88;52.76
30873;BME280;17579;42.690;2.586;2023-03-12T02:07:05;97089.56;;;17.86;52.36
30873;BME280;17579;42.690;2.586;2023-03-12T02:09:32;97091.84;;;17.89;52.23
30873;BME280;17579;42.690;2.586;2023-03-12T02:11:59;97080.16;;;17.90;52.35
30873;BME280;17579;42.690;2.586;2023-03-12T02:14:24;97083.66;;;17.91;52.26
30873;BME280;17579;42.690;2.586;2023-03-12T02:16:52;97085.31;;;17.92;52.61
30873;BME280;17579;42.690;2.586;2023-03-12T02:19:26;97093.06;;;17.87;52.50
30873;BME280;17579;42.690;2.586;2023-03-12T02:21:54;97092.84;;;17.88;52.75
30873;BME280;17579;42.690;2.586;2023-03-12T02:24:30;97080.69;;;17.86;52.88
30873;BME280;17579;42.690;2.586;2023-03-12T02:26:58;97092.25;;;17.86;52.76
30873;BME280;17579;42.690;2.586;2023-03-12T02:29:25;97089.97;;;17.83;52.78
30873;BME280;17579;42.690;2.586;2023-03-12T02:31:55;97083.16;;;17.80;52.72
30873;BME280;17579;42.690;2.586;2023-03-12T02:34:22;97090.97;;;17.82;52.70
30873;BME280;17579;42.690;2.586;2023-03-12T02:36:48;97094.25;;;17.84;52.88
30873;BME280;17579;42.690;2.586;2023-03-12T02:39:13;97097.97;;;17.83;53.29
30873;BME280;17579;42.690;2.586;2023-03-12T02:41:42;97091.16;;;17.80;53.49
30873;BME280;17579;42.690;2.586;2023-03-12T02:44:15;97091.75;;;17.76;53.67
30873;BME280;17579;42.690;2.586;2023-03-12T02:46:45;97083.47;;;17.71;53.10
30873;BME280;17579;42.690;2.586;2023-03-12T02:49:11;97083.69;;;17.69;53.49
30873;BME280;17579;42.690;2.586;2023-03-12T02:51:40;97081.00;;;17.69;53.40
30873;BME280;17579;42.690;2.586;2023-03-12T02:54:06;97077.72;;;17.67;53.46
30873;BME280;17579;42.690;2.586;2023-03-12T02:56:33;97089.22;;;17.67;54.14
30873;BME280;17579;42.690;2.586;2023-03-12T02:58:59;97095.78;;;17.65;54.29
30873;BME280;17579;42.690;2.586;2023-03-12T03:01:24;97101.72;;;17.60;54.39
30873;BME280;17579;42.690;2.586;2023-03-12T03:03:51;97102.09;;;17.57;53.94
30873;BME280;17579;42.690;2.586;2023-03-12T03:06:17;97102.31;;;17.56;54.32
30873;BME280;17579;42.690;2.586;2023-03-12T03:08:43;97104.97;;;17.56;54.10
30873;BME280;17579;42.690;2.586;2023-03-12T03:11:08;97103.31;;;17.55;54.54
30873;BME280;17579;42.690;2.586;2023-03-12T03:13:34;97100.00;;;17.53;54.43
30873;BME280;17579;42.690;2.586;2023-03-12T03:16:00;97098.94;;;17.47;54.65
30873;BME280;17579;42.690;2.586;2023-03-12T03:18:27;97102.16;;;17.42;54.56
30873;BME280;17579;42.690;2.586;2023-03-12T03:20:54;97105.88;;;17.41;55.15
30873;BME280;17579;42.690;2.586;2023-03-12T03:23:20;97106.91;;;17.40;54.89
30873;BME280;17579;42.690;2.586;2023-03-12T03:25:46;97107.72;;;17.41;55.15
30873;BME280;17579;42.690;2.586;2023-03-12T03:28:11;97113.91;;;17.41;54.93
30873;BME280;17579;42.690;2.586;2023-03-12T03:30:37;97121.28;;;17.39;55.14
30873;BME280;17579;42.690;2.586;2023-03-12T03:33:03;97131.97;;;17.39;54.99
30873;BME280;17579;42.690;2.586;2023-03-12T03:35:28;97135.50;;;17.40;55.59
30873;BME280;17579;42.690;2.586;2023-03-12T03:37:54;97134.22;;;17.36;55.65
30873;BME280;17579;42.690;2.586;2023-03-12T03:40:20;97140.09;;;17.31;55.68
30873;BME280;17579;42.690;2.586;2023-03-12T03:42:45;97143.16;;;17.28;55.70
30873;BME280;17579;42.690;2.586;2023-03-12T03:45:11;97150.38;;;17.27;56.27
30873;BME280;17579;42.690;2.586;2023-03-12T03:47:36;97142.53;;;17.26;56.39
30873;BME280;17579;42.690;2.586;2023-03-12T03:50:03;97144.13;;;17.20;56.15
30873;BME280;17579;42.690;2.586;2023-03-12T03:52:30;97162.03;;;17.20;56.43
30873;BME280;17579;42.690;2.586;2023-03-12T03:54:56;97163.03;;;17.19;56.38
30873;BME280;17579;42.690;2.586;2023-03-12T03:57:24;97158.88;;;17.16;56.80
30873;BME280;17579;42.690;2.586;2023-03-12T03:59:49;97157.78;;;17.10;56.74
30873;BME280;17579;42.690;2.586;2023-03-12T04:02:15;97157.16;;;17.08;57.05
30873;BME280;17579;42.690;2.586;2023-03-12T04:04:42;97161.03;;;17.06;57.06
30873;BME280;17579;42.690;2.586;2023-03-12T04:07:07;97163.63;;;16.99;57.47
30873;BME280;17579;42.690;2.586;2023-03-12T04:09:33;97168.97;;;16.99;57.51
30873;BME280;17579;42.690;2.586;2023-03-12T04:11:58;97169.16;;;16.97;57.78
30873;BME280;17579;42.690;2.586;2023-03-12T04:14:24;97170.16;;;16.96;57.58
30873;BME280;17579;42.690;2.586;2023-03-12T04:16:49;97172.66;;;16.98;57.71
30873;BME280;17579;42.690;2.586;2023-03-12T04:19:15;97166.94;;;17.01;58.01
30873;BME280;17579;42.690;2.586;2023-03-12T04:21:40;97166.09;;;17.01;58.00
30873;BME280;17579;42.690;2.586;2023-03-12T04:24:07;97170.34;;;16.95;58.25
30873;BME280;17579;42.690;2.586;2023-03-12T04:26:37;97172.97;;;16.88;58.42
30873;BME280;17579;42.690;2.586;2023-03-12T04:29:02;97182.34;;;16.84;58.63
30873;BME280;17579;42.690;2.586;2023-03-12T04:31:28;97170.81;;;16.84;58.41
30873;BME280;17579;42.690;2.586;2023-03-12T04:33:53;97173.66;;;16.82;58.56
30873;BME280;17579;42.690;2.586;2023-03-12T04:36:19;97170.16;;;16.82;58.86
30873;BME280;17579;42.690;2.586;2023-03-12T04:38:44;97180.41;;;16.78;59.03
30873;BME280;17579;42.690;2.586;2023-03-12T04:41:12;97188.59;;;16.76;59.07
30873;BME280;17579;42.690;2.586;2023-03-12T04:43:38;97180.75;;;16.75;58.84
30873;BME280;17579;42.690;2.586;2023-03-12T04:46:07;97191.81;;;16.72;58.84
30873;BME280;17579;42.690;2.586;2023-03-12T04:48:33;97192.47;;;16.74;59.04
30873;BME280;17579;42.690;2.586;2023-03-12T04:50:59;97193.50;;;16.73;58.94
30873;BME280;17579;42.690;2.586;2023-03-12T04:53:25;97188.34;;;16.71;59.01
30873;BME280;17579;42.690;2.586;2023-03-12T04:55:50;97184.00;;;16.70;59.09
30873;BME280;17579;42.690;2.586;2023-03-12T04:58:17;97197.16;;;16.72;58.56
30873;BME280;17579;42.690;2.586;2023-03-12T05:00:43;97192.00;;;16.70;58.58
30873;BME280;17579;42.690;2.586;2023-03-12T05:03:09;97183.56;;;16.67;58.55
30873;BME280;17579;42.690;2.586;2023-03-12T05:05:34;97190.72;;;16.66;58.78
30873;BME280;17579;42.690;2.586;2023-03-12T05:08:01;97191.09;;;16.63;58.84
30873;BME280;17579;42.690;2.586;2023-03-12T05:10:27;97185.75;;;16.63;58.81
30873;BME280;17579;42.690;2.586;2023-03-12T05:12:52;97185.56;;;16.65;58.75
30873;BME280;17579;42.690;2.586;2023-03-12T05:15:18;97190.72;;;16.66;58.75
30873;BME280;17579;42.690;2.586;2023-03-12T05:17:44;97197.72;;;16.67;58.62
30873;BME280;17579;42.690;2.586;2023-03-12T05:20:10;97197.72;;;16.67;58.77
30873;BME280;17579;42.690;2.586;2023-03-12T05:22:36;97193.56;;;16.65;58.51
30873;BME280;17579;42.690;2.586;2023-03-12T05:25:02;97185.31;;;16.59;58.49
30873;BME280;17579;42.690;2.586;2023-03-12T05:27:27;97192.47;;;16.59;58.72
30873;BME280;17579;42.690;2.586;2023-03-12T05:29:53;97187.31;;;16.57;58.67
30873;BME280;17579;42.690;2.586;2023-03-12T05:32:19;97186.88;;;16.54;58.46
30873;BME280;17579;42.690;2.586;2023-03-12T05:34:44;97185.59;;;16.50;58.60
30873;BME280;17579;42.690;2.586;2023-03-12T05:37:10;97188.63;;;16.47;58.58
30873;BME280;17579;42.690;2.586;2023-03-12T05:39:35;97182.63;;;16.44;58.45
30873;BME280;17579;42.690;2.586;2023-03-12T05:42:03;97187.16;;;16.44;58.34
30873;BME280;17579;42.690;2.586;2023-03-12T05:44:28;97188.34;;;16.41;58.12
30873;BME280;17579;42.690;2.586;2023-03-12T05:46:54;97188.53;;;16.40;57.67
30873;BME280;17579;42.690;2.586;2023-03-12T05:49:20;97174.53;;;16.38;57.30
30873;BME280;17579;42.690;2.586;2023-03-12T05:51:47;97182.06;;;16.34;57.13
30873;BME280;17579;42.690;2.586;2023-03-12T05:54:14;97174.88;;;16.35;56.91
30873;BME280;17579;42.690;2.586;2023-03-12T05:56:39;97176.72;;;16.34;56.55
30873;BME280;17579;42.690;2.586;2023-03-12T05:59:05;97175.72;;;16.35;56.15
30873;BME280;17579;42.690;2.586;2023-03-12T06:01:31;97171.41;;;16.34;55.61
30873;BME280;17579;42.690;2.586;2023-03-12T06:03:57;97175.91;;;16.34;55.17
30873;BME280;17579;42.690;2.586;2023-03-12T06:06:24;97176.72;;;16.34;55.11
30873;BME280;17579;42.690;2.586;2023-03-12T06:08:50;97174.06;;;16.34;55.27
30873;BME280;17579;42.690;2.586;2023-03-12T06:11:17;97168.91;;;16.33;55.35
30873;BME280;17579;42.690;2.586;2023-03-12T06:13:43;97161.72;;;16.33;55.32
30873;BME280;17579;42.690;2.586;2023-03-12T06:16:16;97163.94;;;16.30;55.67
30873;BME280;17579;42.690;2.586;2023-03-12T06:18:42;97167.44;;;16.30;55.70
30873;BME280;17579;42.690;2.586;2023-03-12T06:21:11;97168.81;;;16.26;56.13
30873;BME280;17579;42.690;2.586;2023-03-12T06:23:37;97172.31;;;16.26;55.95
30873;BME280;17579;42.690;2.586;2023-03-12T06:26:03;97167.19;;;16.25;56.72
30873;BME280;17579;42.690;2.586;2023-03-12T06:28:29;97167.19;;;16.25;56.25
30873;BME280;17579;42.690;2.586;2023-03-12T06:30:55;97176.38;;;16.22;56.24
30873;BME280;17579;42.690;2.586;2023-03-12T06:33:21;97179.47;;;16.26;56.28
30873;BME280;17579;42.690;2.586;2023-03-12T06:35:52;97164.50;;;16.25;56.60
30873;BME280;17579;42.690;2.586;2023-03-12T06:38:18;97172.16;;;16.28;56.17
30873;BME280;17579;42.690;2.586;2023-03-12T06:40:52;97174.34;;;16.24;56.01
30873;BME280;17579;42.690;2.586;2023-03-12T06:43:18;97178.78;;;16.32;55.92
30873;BME280;17579;42.690;2.586;2023-03-12T06:45:43;97183.56;;;16.37;55.26
30873;BME280;17579;42.690;2.586;2023-03-12T06:48:09;97170.66;;;16.40;55.27
30873;BME280;17579;42.690;2.586;2023-03-12T06:50:34;97177.28;;;16.44;55.23
30873;BME280;17579;42.690;2.586;2023-03-12T06:53:00;97188.63;;;16.47;55.34
30873;BME280;17579;42.690;2.586;2023-03-12T06:55:25;97178.56;;;16.49;55.39
30873;BME280;17579;42.690;2.586;2023-03-12T06:57:51;97177.38;;;16.51;55.21
30873;BME280;17579;42.690;2.586;2023-03-12T07:00:17;97185.66;;;16.56;55.19
30873;BME280;17579;42.690;2.586;2023-03-12T07:02:43;97198.28;;;16.62;54.94
30873;BME280;17579;42.690;2.586;2023-03-12T07:05:09;97204.06;;;16.66;55.08
30873;BME280;17579;42.690;2.586;2023-03-12T07:07:34;97189.16;;;16.72;54.76
30873;BME280;17579;42.690;2.586;2023-03-12T07:10:00;97191.44;;;16.75;54.92
30873;BME280;17579;42.690;2.586;2023-03-12T07:12:25;97212.09;;;16.81;54.80
30873;BME280;17579;42.690;2.586;2023-03-12T07:14:51;97215.00;;;16.86;54.87
30873;BME280;17579;42.690;2.586;2023-03-12T07:17:16;97219.00;;;16.90;55.22
30873;BME280;17579;42.690;2.586;2023-03-12T07:19:42;97228.31;;;16.94;55.35
30873;BME280;17579;42.690;2.586;2023-03-12T07:22:07;97215.41;;;16.98;55.27
30873;BME280;17579;42.690;2.586;2023-03-12T07:24:33;97227.19;;;17.04;55.12
30873;BME280;17579;42.690;2.586;2023-03-12T07:26:58;97232.19;;;17.07;55.27
30873;BME280;17579;42.690;2.586;2023-03-12T07:29:24;97236.69;;;17.06;55.68
30873;BME280;17579;42.690;2.586;2023-03-12T07:31:49;97238.16;;;17.09;55.85
30873;BME280;17579;42.690;2.586;2023-03-12T07:34:15;97240.81;;;17.09;56.06
30873;BME280;17579;42.690;2.586;2023-03-12T07:36:40;97242.69;;;17.08;56.32
30873;BME280;17579;42.690;2.586;2023-03-12T07:39:06;97249.31;;;17.12;56.37
30873;BME280;17579;42.690;2.586;2023-03-12T07:41:33;97255.28;;;17.14;56.67
30873;BME280;17579;42.690;2.586;2023-03-12T07:44:01;97254.91;;;17.18;56.61
30873;BME280;17579;42.690;2.586;2023-03-12T07:46:27;97263.59;;;17.20;56.76
30873;BME280;17579;42.690;2.586;2023-03-12T07:48:52;97260.44;;;17.16;56.70
30873;BME280;17579;42.690;2.586;2023-03-12T07:51:18;97271.41;;;17.21;57.44
30873;BME280;17579;42.690;2.586;2023-03-12T07:53:43;97272.66;;;17.25;57.08
30873;BME280;17579;42.690;2.586;2023-03-12T07:56:09;97276.00;;;17.27;57.12
30873;BME280;17579;42.690;2.586;2023-03-12T07:58:34;97266.97;;;17.28;57.43
30873;BME280;17579;42.690;2.586;2023-03-12T08:01:01;97270.28;;;17.30;57.44
30873;BME280;17579;42.690;2.586;2023-03-12T08:03:26;97273.59;;;17.33;57.24
30873;BME280;17579;42.690;2.586;2023-03-12T08:08:19;97282.16;;;17.43;57.07
30873;BME280;17579;42.690;2.586;2023-03-12T08:10:44;97268.41;;;17.46;57.17
30873;BME280;17579;42.690;2.586;2023-03-12T08:13:10;97275.03;;;17.50;57.34
30873;BME280;17579;42.690;2.586;2023-03-12T08:15:35;97271.41;;;17.58;57.01
30873;BME280;17579;42.690;2.586;2023-03-12T08:18:01;97270.28;;;17.67;57.04
30873;BME280;17579;42.690;2.586;2023-03-12T08:20:26;97279.44;;;17.79;56.52
30873;BME280;17579;42.690;2.586;2023-03-12T08:22:52;97285.31;;;17.90;56.24
30873;BME280;17579;42.690;2.586;2023-03-12T08:25:17;97297.41;;;18.00;56.36
30873;BME280;17579;42.690;2.586;2023-03-12T08:27:45;97297.44;;;18.07;55.97
30873;BME280;17579;42.690;2.586;2023-03-12T08:30:11;97302.03;;;18.13;56.08
30873;BME280;17579;42.690;2.586;2023-03-12T08:32:37;97297.78;;;18.19;56.78
30873;BME280;17579;42.690;2.586;2023-03-12T08:35:03;97288.97;;;18.25;55.80
30873;BME280;17579;42.690;2.586;2023-03-12T08:37:30;97296.41;;;18.30;55.51
30873;BME280;17579;42.690;2.586;2023-03-12T08:39:55;97303.84;;;18.34;55.90
30873;BME280;17579;42.690;2.586;2023-03-12T08:42:21;97317.13;;;18.43;55.86
30873;BME280;17579;42.690;2.586;2023-03-12T08:44:47;97310.59;;;18.52;55.32
30873;BME280;17579;42.690;2.586;2023-03-12T08:47:13;97316.66;;;18.61;55.58
30873;BME280;17579;42.690;2.586;2023-03-12T08:49:38;97313.81;;;18.69;55.91
30873;BME280;17579;42.690;2.586;2023-03-12T08:52:04;97312.59;;;18.72;55.43
30873;BME280;17579;42.690;2.586;2023-03-12T08:54:29;97310.97;;;18.70;55.11
30873;BME280;17579;42.690;2.586;2023-03-12T08:56:55;97307.47;;;18.77;54.83
30873;BME280;17579;42.690;2.586;2023-03-12T08:59:21;97323.78;;;18.82;54.34
30873;BME280;17579;42.690;2.586;2023-03-12T09:01:47;97319.69;;;18.86;54.33
30873;BME280;17579;42.690;2.586;2023-03-12T09:04:13;97314.22;;;18.94;54.83
30873;BME280;17579;42.690;2.586;2023-03-12T09:06:39;97317.34;;;18.98;54.68
30873;BME280;17579;42.690;2.586;2023-03-12T09:09:05;97321.66;;;18.99;54.06
30873;BME280;17579;42.690;2.586;2023-03-12T09:11:34;97318.97;;;18.99;54.26
30873;BME280;17579;42.690;2.586;2023-03-12T09:14:01;97306.03;;;19.02;54.56
30873;BME280;17579;42.690;2.586;2023-03-12T09:16:27;97304.81;;;19.12;54.77
30873;BME280;17579;42.690;2.586;2023-03-12T09:18:53;97321.78;;;19.19;54.70
30873;BME280;17579;42.690;2.586;2023-03-12T09:21:19;97306.34;;;19.28;54.00
30873;BME280;17579;42.690;2.586;2023-03-12T09:23:44;97304.50;;;19.28;54.41
30873;BME280;17579;42.690;2.586;2023-03-12T09:26:11;97305.94;;;19.31;54.47
30873;BME280;17579;42.690;2.586;2023-03-12T09:28:37;97305.78;;;19.32;54.01
30873;BME280;17579;42.690;2.586;2023-03-12T09:31:04;97299.81;;;19.37;54.40
30873;BME280;17579;42.690;2.586;2023-03-12T09:33:30;97283.53;;;19.45;53.67
30873;BME280;17579;42.690;2.586;2023-03-12T09:35:57;97290.34;;;19.48;53.35
30873;BME280;17579;42.690;2.586;2023-03-12T09:38:24;97293.66;;;19.50;53.58
30873;BME280;17579;42.690;2.586;2023-03-12T09:40:50;97287.25;;;19.51;53.23
30873;BME280;17579;42.690;2.586;2023-03-12T09:43:23;97288.91;;;19.52;53.25
30873;BME280;17579;42.690;2.586;2023-03-12T09:45:50;97294.91;;;19.54;53.22
30873;BME280;17579;42.690;2.586;2023-03-12T09:48:22;97282.72;;;19.51;53.31
30873;BME280;17579;42.690;2.586;2023-03-12T09:50:52;97290.56;;;19.53;53.22
30873;BME280;17579;42.690;2.586;2023-03-12T09:53:39;97289.94;;;19.51;53.11
30873;BME280;17579;42.690;2.586;2023-03-12T09:56:13;97297.84;;;19.66;53.30
30873;BME280;17579;42.690;2.586;2023-03-12T09:58:39;97283.19;;;19.75;52.70
30873;BME280;17579;42.690;2.586;2023-03-12T10:04:34;97291.09;;;19.83;52.88
30873;BME280;17579;42.690;2.586;2023-03-12T10:07:06;97276.88;;;19.96;51.89
30873;BME280;17579;42.690;2.586;2023-03-12T10:09:45;97280.38;;;20.03;52.24
30873;BME280;17579;42.690;2.586;2023-03-12T10:18:09;97283.31;;;20.22;51.84
30873;BME280;17579;42.690;2.586;2023-03-12T10:23:46;97292.78;;;20.31;51.55
30873;BME280;17579;42.690;2.586;2023-03-12T10:26:19;97288.69;;;20.42;51.29
30873;BME280;17579;42.690;2.586;2023-03-12T10:31:36;97293.63;;;20.65;50.90
30873;BME280;17579;42.690;2.586;2023-03-12T10:34:16;97292.00;;;20.77;50.77
30873;BME280;17579;42.690;2.586;2023-03-12T10:36:43;97289.69;;;20.88;50.53
30873;BME280;17579;42.690;2.586;2023-03-12T10:39:14;97288.41;;;20.97;50.69
30873;BME280;17579;42.690;2.586;2023-03-12T10:41:41;97287.56;;;21.10;50.52
30873;BME280;17579;42.690;2.586;2023-03-12T10:44:16;97281.53;;;21.21;50.50
30873;BME280;17579;42.690;2.586;2023-03-12T10:46:51;97297.66;;;21.28;49.75
30873;BME280;17579;42.690;2.586;2023-03-12T10:49:26;97293.06;;;21.35;49.67
30873;BME280;17579;42.690;2.586;2023-03-12T10:51:56;97299.19;;;21.49;49.48
30873;BME280;17579;42.690;2.586;2023-03-12T10:54:28;97287.19;;;21.58;48.93
30873;BME280;17579;42.690;2.586;2023-03-12T10:56:54;97280.34;;;21.62;48.97
30873;BME280;17579;42.690;2.586;2023-03-12T10:59:21;97291.06;;;21.69;48.93
30873;BME280;17579;42.690;2.586;2023-03-12T11:01:50;97292.25;;;21.80;48.23
30873;BME280;17579;42.690;2.586;2023-03-12T11:04:20;97288.91;;;21.85;48.45
30873;BME280;17579;42.690;2.586;2023-03-12T11:09:18;97283.53;;;21.85;48.27
30873;BME280;17579;42.690;2.586;2023-03-12T11:11:46;97279.94;;;21.91;48.04
30873;BME280;17579;42.690;2.586;2023-03-12T11:14:28;97281.41;;;21.93;48.65
30873;BME280;17579;42.690;2.586;2023-03-12T11:16:55;97270.13;;;22.10;47.68
30873;BME280;17579;42.690;2.586;2023-03-12T11:22:07;97271.75;;;22.11;48.08
30873;BME280;17579;42.690;2.586;2023-03-12T11:24:35;97268.13;;;22.24;46.84
30873;BME280;17579;42.690;2.586;2023-03-12T11:27:29;97270.88;;;22.17;47.12
30873;BME280;17579;42.690;2.586;2023-03-12T11:29:57;97268.13;;;22.24;47.01
30873;BME280;17579;42.690;2.586;2023-03-12T11:32:32;97278.09;;;22.23;46.57
30873;BME280;17579;42.690;2.586;2023-03-12T11:34:58;97269.56;;;22.26;46.70
30873;BME280;17579;42.690;2.586;2023-03-12T11:37:38;97275.56;;;22.28;47.24
30873;BME280;17579;42.690;2.586;2023-03-12T11:40:16;97275.09;;;22.38;46.84
30873;BME280;17579;42.690;2.586;2023-03-12T11:45:39;97261.41;;;22.40;46.79
30873;BME280;17579;42.690;2.586;2023-03-12T11:58:26;97245.47;;;22.57;46.37
30873;BME280;17579;42.690;2.586;2023-03-12T12:01:07;97240.09;;;22.57;46.06
30873;BME280;17579;42.690;2.586;2023-03-12T12:06:16;97234.06;;;22.61;45.76
30873;BME280;17579;42.690;2.586;2023-03-12T12:08:57;97236.13;;;22.59;46.20
30873;BME280;17579;42.690;2.586;2023-03-12T12:11:39;97228.50;;;22.56;46.08
30873;BME280;17579;42.690;2.586;2023-03-12T12:14:27;97225.97;;;22.61;45.91
30873;BME280;17579;42.690;2.586;2023-03-12T12:17:22;97217.72;;;22.75;46.48
30873;BME280;17579;42.690;2.586;2023-03-12T12:22:34;97211.38;;;22.88;45.28
30873;BME280;17579;42.690;2.586;2023-03-12T12:25:29;97205.75;;;22.89;45.77
30873;BME280;17579;42.690;2.586;2023-03-12T12:30:53;97201.63;;;23.05;44.66
30873;BME280;17579;42.690;2.586;2023-03-12T12:33:47;97203.72;;;23.03;45.42
30873;BME280;17579;42.690;2.586;2023-03-12T12:36:17;97208.22;;;23.09;44.34
30873;BME280;17579;42.690;2.586;2023-03-12T12:38:47;97198.09;;;23.05;44.48
30873;BME280;17579;42.690;2.586;2023-03-12T12:41:17;97198.34;;;23.03;44.46
30873;BME280;17579;42.690;2.586;2023-03-12T12:43:47;97189.84;;;22.99;43.85
30873;BME280;17579;42.690;2.586;2023-03-12T12:46:17;97183.50;;;22.94;44.72
30873;BME280;17579;42.690;2.586;2023-03-12T12:48:45;97181.41;;;22.96;44.92
30873;BME280;17579;42.690;2.586;2023-03-12T12:51:14;97172.63;;;23.00;45.14
30873;BME280;17579;42.690;2.586;2023-03-12T12:53:53;97176.88;;;23.08;44.41
30873;BME280;17579;42.690;2.586;2023-03-12T13:01:49;97173.59;;;23.25;44.39
30873;BME280;17579;42.690;2.586;2023-03-12T13:04:22;97166.00;;;23.33;44.33
30873;BME280;17579;42.690;2.586;2023-03-12T13:09:20;97146.72;;;23.30;43.70
30873;BME280;17579;42.690;2.586;2023-03-12T13:11:47;97138.19;;;23.33;43.20
30873;BME280;17579;42.690;2.586;2023-03-12T13:14:20;97141.56;;;23.28;43.39
30873;BME280;17579;42.690;2.586;2023-03-12T13:16:47;97134.66;;;23.32;43.04
30873;BME280;17579;42.690;2.586;2023-03-12T13:19:27;97132.91;;;23.26;43.73
30873;BME280;17579;42.690;2.586;2023-03-12T13:22:06;97140.06;;;23.32;43.74
30873;BME280;17579;42.690;2.586;2023-03-12T13:25:00;97132.34;;;23.36;43.34
30873;BME280;17579;42.690;2.586;2023-03-12T13:27:30;97130.56;;;23.42;43.80
30873;BME280;17579;42.690;2.586;2023-03-12T13:29:57;97129.28;;;23.44;43.28
30873;BME280;17579;42.690;2.586;2023-03-12T13:34:49;97132.53;;;23.65;43.50
30873;BME280;17579;42.690;2.586;2023-03-12T13:37:19;97130.63;;;23.65;43.35
30873;BME280;17579;42.690;2.586;2023-03-12T13:39:51;97147.66;;;23.66;43.50
30873;BME280;17579;42.690;2.586;2023-03-12T13:44:44;97155.81;;;23.78;42.92
30873;BME280;17579;42.690;2.586;2023-03-12T13:47:28;97162.47;;;23.75;42.94
30873;BME280;17579;42.690;2.586;2023-03-12T13:50:14;97169.44;;;23.95;43.11
30873;BME280;17579;42.690;2.586;2023-03-12T13:52:47;97178.53;;;24.12;42.85
30873;BME280;17579;42.690;2.586;2023-03-12T13:55:29;97180.44;;;24.35;42.58
30873;BME280;17579;42.690;2.586;2023-03-12T13:58:00;97177.38;;;24.67;41.78
30873;BME280;17579;42.690;2.586;2023-03-12T14:00:34;97190.72;;;24.98;40.93
30873;BME280;17579;42.690;2.586;2023-03-12T14:03:03;97195.44;;;25.31;40.40
30873;BME280;17579;42.690;2.586;2023-03-12T14:05:33;97201.31;;;25.69;39.68